Eastside, Alabama
Current Conditions -  °F | °C
As of 10:26 AM on Sunday 23 Nov 2014 (Local Time) from KTCL Reporting Station
Light Rain Light Rain  
Wind Chill: 63°   Ceiling: 700
Heat Index: 63°   Visibility: 8mi
Dew Point: 61°   Wind: 7mph
Humidity: 93%   Direction: 100°E
Pressure: 29.71"   Gusts: NA
Location:  33.2198°N, 87.4638°W
Report Text: KTCL 231626Z 10006KT 8SM -RA OVC007 17/16 A2971 RMK AO2 LTG DSNT W AND NW RAB04 PRESFR P0001 T01720161
Loading
Personal Weather Stations






























Interactive Weather Map New forecast layout! Learn more

10-Day Weather Forecast

Advertisements
Track Severe Weather on mobile